Time;durP1;ratioP1;P1;durP2;ratioP2;P2;SDS_P1;SDS_P2;PMS_P1;PMS_P2;Temp;Humidity;BMP_temperature;BMP_pressure;BME280_temperature;BME280_humidity;BME280_pressure;Samples;Min_cycle;Max_cycle;Signal;HPM_P1;HPM_P2
2022/03/16 00:02:51;;;;;;;1999.90;999.90;;;;;;;9.65;60.33;101947.41;15639238;28;20071;-60
2022/03/16 00:10:24;;;;;;;1999.90;999.90;;;;;;;9.72;59.75;101950.66;15651368;28;20049;-60
2022/03/16 00:17:56;;;;;;;1999.90;999.90;;;;;;;9.49;60.69;101955.13;15662836;28;20075;-61
2022/03/16 00:25:30;;;;;;;1999.90;999.90;;;;;;;9.10;62.35;101949.69;15615116;28;20049;-62
2022/03/16 00:33:02;;;;;;;1999.90;999.90;;;;;;;8.92;62.97;101953.19;15657148;28;20048;-60
2022/03/16 00:40:37;;;;;;;1999.90;999.90;;;;;;;8.83;63.59;101952.13;15672537;28;20458;-60
2022/03/16 00:48:10;;;;;;;1999.90;999.90;;;;;;;8.68;63.97;101956.72;15614011;28;20136;-60
2022/03/16 00:55:43;;;;;;;1999.90;999.90;;;;;;;8.91;63.67;101952.34;15620238;22;20053;-63
2022/03/16 01:03:15;;;;;;;1999.90;999.90;;;;;;;8.61;65.17;101959.00;15597757;28;20048;-61
2022/03/16 01:10:49;;;;;;;1999.90;999.90;;;;;;;8.62;64.89;101955.09;15633964;28;20056;-62
2022/03/16 01:18:21;;;;;;;1999.90;999.90;;;;;;;8.68;64.97;101965.06;15636040;28;20061;-63
2022/03/16 01:25:54;;;;;;;1999.90;999.90;;;;;;;8.50;64.89;101962.97;15640428;28;20049;-62
2022/03/16 01:33:27;;;;;;;1999.90;999.90;;;;;;;8.31;65.08;101970.28;15631272;28;20037;-63
2022/03/16 01:41:00;;;;;;;1999.90;999.90;;;;;;;8.28;65.37;101966.16;15604328;28;20036;-60
2022/03/16 01:48:33;;;;;;;1999.90;999.90;;;;;;;8.17;65.96;101972.06;15615421;28;20136;-61
2022/03/16 01:56:06;;;;;;;1999.90;999.90;;;;;;;7.98;66.47;101988.53;15623073;28;20096;-62
2022/03/16 02:03:38;;;;;;;;;;;;;;;7.91;66.96;101994.41;15622249;28;20056;-61
2022/03/16 02:11:12;;;;;;;1999.90;999.90;;;;;;;7.75;67.68;102001.97;15636433;28;20394;-61
2022/03/16 02:18:44;;;;;;;1999.90;999.90;;;;;;;7.68;68.16;102011.72;15640549;28;20545;-61
2022/03/16 02:26:17;;;;;;;1999.90;999.90;;;;;;;7.66;68.23;102025.91;15619233;28;20068;-60
2022/03/16 02:33:49;;;;;;;1999.90;999.90;;;;;;;7.52;68.72;102027.59;15635712;28;20094;-63
2022/03/16 02:41:23;;;;;;;1999.90;999.90;;;;;;;7.34;70.29;102050.41;15632739;28;20051;-61
2022/03/16 02:48:55;;;;;;;1999.90;999.90;;;;;;;7.27;71.08;102059.00;15629640;28;20377;-59
2022/03/16 02:56:28;;;;;;;1999.90;999.90;;;;;;;7.17;72.88;102081.22;15629175;28;20421;-58
2022/03/16 03:04:00;;;;;;;;;;;;;;;7.30;72.63;102090.94;15629129;28;20041;-61
2022/03/16 03:11:34;;;;;;;1999.90;999.90;;;;;;;7.24;72.95;102110.38;15623877;28;19987;-60
2022/03/16 03:19:06;;;;;;;1999.90;999.90;;;;;;;7.31;71.51;102128.72;15610305;28;20041;-59
2022/03/16 03:26:39;;;;;;;1999.90;999.90;;;;;;;7.13;71.40;102139.25;15633496;28;20087;-61
2022/03/16 03:34:12;;;;;;;1999.90;999.90;;;;;;;6.98;70.94;102146.69;15622711;28;20094;-62
2022/03/16 03:41:45;;;;;;;1999.90;999.90;;;;;;;6.88;71.47;102151.13;15618337;28;20257;-61
2022/03/16 03:49:18;;;;;;;1999.90;999.90;;;;;;;6.76;71.42;102164.41;15628689;28;20067;-62
2022/03/16 03:56:54;;;;;;;1999.90;999.90;;;;;;;6.61;72.48;102170.72;15636761;28;20111;-62
2022/03/16 04:04:26;;;;;;;1999.90;999.90;;;;;;;6.49;72.86;102178.44;15628485;28;20132;-62
2022/03/16 04:12:01;;;;;;;;;;;;;;;6.59;72.29;102177.66;15613179;28;20041;-62
2022/03/16 04:19:33;;;;;;;1999.90;999.90;;;;;;;6.22;72.17;102189.66;15626201;28;19920;-62
2022/03/16 04:27:07;;;;;;;1999.90;999.90;;;;;;;6.28;71.97;102207.19;15626351;28;20049;-60
2022/03/16 04:34:39;;;;;;;1999.90;999.90;;;;;;;6.23;72.15;102216.28;15641190;28;20099;-62
2022/03/16 04:42:13;;;;;;;1999.90;999.90;;;;;;;6.25;72.57;102227.97;15648794;28;20058;-61
2022/03/16 04:49:45;;;;;;;1999.90;999.90;;;;;;;6.11;74.34;102237.81;15624983;28;20055;-61
2022/03/16 04:57:18;;;;;;;1999.90;999.90;;;;;;;6.10;73.76;102238.09;15639904;28;20434;-61
2022/03/16 05:04:51;;;;;;;1999.90;999.90;;;;;;;5.93;74.37;102246.53;15639391;28;20052;-60
2022/03/16 05:12:24;;;;;;;1999.90;999.90;;;;;;;6.01;74.05;102246.06;15621654;28;20400;-61
2022/03/16 05:19:56;;;;;;;1999.90;999.90;;;;;;;6.05;74.66;102255.53;15620953;28;20556;-61
2022/03/16 05:27:30;;;;;;;1999.90;999.90;;;;;;;5.88;74.76;102257.56;15624124;28;20040;-61
2022/03/16 05:35:02;;;;;;;;;;;;;;;5.85;75.46;102260.88;15599361;28;20538;-60
2022/03/16 05:42:36;;;;;;;1999.90;999.90;;;;;;;5.97;76.66;102258.78;15620343;28;20019;-60
2022/03/16 05:50:08;;;;;;;;;;;;;;;6.41;74.12;102262.16;15646784;28;20072;-61
2022/03/16 05:57:44;;;;;;;1999.90;999.90;;;;;;;6.28;73.57;102266.22;15625819;28;20356;-60
2022/03/16 06:05:18;;;;;;;1999.90;999.90;;;;;;;6.40;73.77;102279.06;15628957;28;20083;-61
2022/03/16 06:12:59;;;;;;;1999.90;999.90;;;;;;;6.62;73.95;102280.59;15622896;28;20119;-60
2022/03/16 06:20:35;;;;;;;1999.90;999.90;;;;;;;6.29;75.54;102276.22;15629032;28;20113;-59
2022/03/16 06:28:14;;;;;;;1999.90;999.90;;;;;;;6.67;76.19;102290.88;15621868;28;20060;-60
2022/03/16 06:35:50;;;;;;;1999.90;999.90;;;;;;;7.12;75.06;102292.19;15631951;28;20050;-62
2022/03/16 06:43:28;;;;;;;1999.90;999.90;;;;;;;7.82;72.72;102299.06;15617717;28;20041;-61
2022/03/16 06:51:00;;;;;;;1999.90;999.90;;;;;;;8.71;71.64;102310.72;15638002;28;20498;-60
2022/03/16 06:58:34;;;;;;;1999.90;999.90;;;;;;;9.47;69.23;102304.81;15643661;28;20049;-60
2022/03/16 07:06:08;;;;;;;1999.90;999.90;;;;;;;10.29;68.45;102303.16;15618579;28;20060;-63
2022/03/16 07:14:30;;;;;;;;;;;;;;;11.03;63.89;102292.59;15623188;28;20121;-61
2022/03/16 07:21:35;;;;;;;1999.90;999.90;;;;;;;11.96;62.11;102306.97;15615052;28;20296;-60
2022/03/16 07:29:08;;;;;;;1999.90;999.90;;;;;;;12.16;61.14;102305.81;15632130;28;20597;-63
2022/03/16 07:36:40;;;;;;;1999.90;999.90;;;;;;;12.80;60.80;102320.91;15636542;28;20041;-61
2022/03/16 07:44:14;;;;;;;1999.90;999.90;;;;;;;13.11;58.29;102329.53;15647893;28;20522;-59
2022/03/16 07:51:47;;;;;;;1999.90;999.90;;;;;;;13.89;57.48;102333.22;15611363;28;20046;-60
2022/03/16 07:59:20;;;;;;;1999.90;999.90;;;;;;;14.48;54.93;102334.84;15624224;28;20046;-59
2022/03/16 08:06:55;;;;;;;1999.90;999.90;;;;;;;14.37;54.82;102356.72;15633328;28;20182;-59
2022/03/16 08:14:28;;;;;;;1999.90;999.90;;;;;;;14.35;55.33;102361.00;15622659;28;20053;-62
2022/03/16 08:22:01;;;;;;;;;;;;;;;15.96;51.34;102370.84;15616965;28;20049;-63
2022/03/16 08:29:34;;;;;;;1999.90;999.90;;;;;;;16.51;50.02;102375.81;15614288;28;20055;-63
2022/03/16 08:37:09;;;;;;;1999.90;999.90;;;;;;;17.70;47.25;102382.53;15624373;28;20128;-60
2022/03/16 08:44:45;;;;;;;1999.90;999.90;;;;;;;16.56;47.94;102389.69;15607907;28;20052;-62
2022/03/16 08:52:18;;;;;;;1999.90;999.90;;;;;;;16.67;47.52;102388.22;15631712;28;20052;-59
2022/03/16 08:59:53;;;;;;;1999.90;999.90;;;;;;;18.18;45.61;102397.00;15623593;28;20538;-65
2022/03/16 09:07:25;;;;;;;1999.90;999.90;;;;;;;17.98;44.75;102394.16;15618149;28;20293;-60
2022/03/16 09:14:58;;;;;;;1999.90;999.90;;;;;;;18.01;45.48;102399.94;15612204;28;20701;-61
2022/03/16 09:22:30;;;;;;;1999.90;999.90;;;;;;;17.76;43.54;102401.78;15591536;28;20034;-62
2022/03/16 09:30:05;;;;;;;1999.90;999.90;;;;;;;17.73;44.90;102413.75;15616099;28;20372;-60
2022/03/16 09:37:37;;;;;;;1999.90;999.90;;;;;;;16.92;47.19;102411.06;15657554;28;20135;-62
2022/03/16 09:45:18;;;;;;;1999.90;999.90;;;;;;;17.53;45.18;102426.63;15620302;28;20048;-63
2022/03/16 09:52:50;;;;;;;1999.90;999.90;;;;;;;18.66;44.67;102429.53;15668857;28;20073;-62
2022/03/16 10:00:25;;;;;;;1999.90;999.90;;;;;;;18.22;44.21;102431.03;15672924;28;20123;-60
2022/03/16 10:07:59;;;;;;;1999.90;999.90;;;;;;;18.35;44.19;102437.59;15672246;28;20053;-61
2022/03/16 10:15:33;;;;;;;1999.90;999.90;;;;;;;20.49;41.17;102445.81;15642774;28;20041;-62
2022/03/16 10:23:07;;;;;;;1999.90;999.90;;;;;;;19.35;41.87;102456.25;15652587;28;20055;-61
2022/03/16 10:30:56;;;;;;;1999.90;999.90;;;;;;;19.85;40.48;102455.94;15612833;28;20033;-62
2022/03/16 10:38:30;;;;;;;1999.90;999.90;;;;;;;19.24;42.13;102457.88;15612856;28;20037;-63
2022/03/16 10:54:02;;;;;;;1999.90;999.90;;;;;;;21.23;37.82;102464.16;15653876;28;19927;-61
2022/03/16 11:01:38;;;;;;;1999.90;999.90;;;;;;;19.49;40.46;102458.75;15672215;28;20053;-61
2022/03/16 11:09:11;;;;;;;1999.90;999.90;;;;;;;19.05;42.31;102464.06;15671092;28;20041;-60
2022/03/16 11:16:47;;;;;;;1999.90;999.90;;;;;;;21.20;37.76;102459.22;15658304;28;20064;-61
2022/03/16 11:24:24;;;;;;;1999.90;999.90;;;;;;;19.27;42.59;102458.00;15616069;28;20087;-60
2022/03/16 11:32:11;;;;;;;1999.90;999.90;;;;;;;18.97;41.33;102450.88;15611181;28;20056;-61
2022/03/16 11:39:45;;;;;;;1999.90;999.90;;;;;;;19.01;42.38;102455.47;15618695;28;20041;-62
2022/03/16 11:47:35;;;;;;;1999.90;999.90;;;;;;;19.64;41.27;102443.09;15618546;28;20124;-62
2022/03/16 11:55:08;;;;;;;1999.90;999.90;;;;;;;20.47;40.19;102445.38;15617972;28;20092;-61
2022/03/16 12:02:41;;;;;;;1999.90;999.90;;;;;;;20.02;41.80;102435.06;15618594;28;20117;-59
2022/03/16 12:10:16;;;;;;;1999.90;999.90;;;;;;;21.44;36.62;102431.88;15676093;28;20084;-64
2022/03/16 12:18:31;;;;;;;1999.90;999.90;;;;;;;21.06;38.90;102421.94;15677465;28;20708;-62
2022/03/16 12:26:04;;;;;;;1999.90;999.90;;;;;;;21.32;37.66;102421.44;15636569;28;20446;-62
2022/03/16 12:33:40;;;;;;;1999.90;999.90;;;;;;;21.46;36.85;102412.44;15553590;28;20050;-65
2022/03/16 12:49:06;;;;;;;1999.90;999.90;;;;;;;24.02;33.18;102399.75;15552756;28;20057;-62
2022/03/16 12:56:42;;;;;;;1999.90;999.90;;;;;;;23.54;35.25;102410.78;15552126;28;20491;-64
2022/03/16 13:04:16;;;;;;;1999.90;999.90;;;;;;;24.10;32.79;102401.50;15552655;28;20042;-62
2022/03/16 13:12:02;;;;;;;1999.90;999.90;;;;;;;24.12;32.60;102397.06;15553651;28;20108;-60
2022/03/16 13:19:44;;;;;;;1999.90;999.90;;;;;;;23.55;32.92;102379.06;15614572;28;20046;-61
2022/03/16 13:27:29;;;;;;;1999.90;999.90;;;;;;;23.73;32.24;102372.84;15594194;28;20073;-62
2022/03/16 13:35:12;;;;;;;1999.90;999.90;;;;;;;22.06;34.79;102373.28;15602602;28;20049;-65
2022/03/16 13:42:46;;;;;;;1999.90;999.90;;;;;;;22.63;32.41;102375.34;15588343;28;20041;-63
2022/03/16 13:50:21;;;;;;;1999.90;999.90;;;;;;;17.82;41.04;102383.47;15581927;28;20132;-63
2022/03/16 13:57:56;;;;;;;1999.90;999.90;;;;;;;16.74;41.51;102384.91;15605521;28;20080;-64
2022/03/16 14:05:39;;;;;;;1999.90;999.90;;;;;;;15.93;43.46;102391.19;15613607;28;20295;-63
2022/03/16 14:13:13;;;;;;;1999.90;999.90;;;;;;;16.72;40.50;102392.88;15619767;28;20214;-61
2022/03/16 14:20:48;;;;;;;1999.90;999.90;;;;;;;16.82;40.14;102405.78;15614328;28;20045;-64
2022/03/16 14:28:22;;;;;;;1999.90;999.90;;;;;;;16.71;41.03;102400.50;15588439;28;20053;-59
2022/03/16 14:35:57;;;;;;;1999.90;999.90;;;;;;;15.95;40.71;102393.72;15595710;28;20045;-62
2022/03/16 14:43:31;;;;;;;1999.90;999.90;;;;;;;16.79;38.56;102403.66;15668154;28;20469;-64
2022/03/16 14:51:04;;;;;;;1999.90;999.90;;;;;;;16.28;38.46;102394.88;15630299;28;20070;-60
2022/03/16 14:58:38;;;;;;;1999.90;999.90;;;;;;;15.75;37.79;102395.16;15671015;28;20045;-60
2022/03/16 15:06:11;;;;;;;1999.90;999.90;;;;;;;15.68;39.40;102386.34;15668341;28;20136;-63
2022/03/16 15:13:45;;;;;;;1999.90;999.90;;;;;;;15.81;40.09;102403.09;15594297;28;20145;-61
2022/03/16 15:21:18;;;;;;;1999.90;999.90;;;;;;;15.65;41.59;102398.28;15627791;28;20496;-63
2022/03/16 15:28:52;;;;;;;1999.90;999.90;;;;;;;14.90;44.53;102386.00;15606768;28;20111;-62
2022/03/16 15:36:25;;;;;;;1999.90;999.90;;;;;;;15.10;44.52;102379.81;15603214;28;20200;-62
2022/03/16 15:43:58;;;;;;;1999.90;999.90;;;;;;;14.84;41.56;102384.50;15603637;28;20053;-61
2022/03/16 15:51:31;;;;;;;1999.90;999.90;;;;;;;14.76;44.06;102383.28;15603239;28;20080;-63
2022/03/16 15:59:07;;;;;;;1999.90;999.90;;;;;;;14.50;44.91;102394.38;15603718;28;20124;-62
2022/03/16 16:06:41;;;;;;;1999.90;999.90;;;;;;;14.38;45.80;102389.28;15602312;28;20461;-61
2022/03/16 16:14:15;;;;;;;1999.90;999.90;;;;;;;14.38;46.81;102374.38;15603833;28;20398;-62
2022/03/16 16:21:47;;;;;;;;;;;;;;;13.73;49.72;102374.81;15612381;28;20037;-62
2022/03/16 16:29:26;;;;;;;1999.90;999.90;;;;;;;13.47;50.60;102377.34;15593839;28;19921;-61
2022/03/16 16:37:00;;;;;;;1999.90;999.90;;;;;;;13.26;51.68;102405.81;15552254;28;20050;-61
2022/03/16 16:44:33;;;;;;;1999.90;999.90;;;;;;;13.12;53.50;102402.09;15634093;28;20045;-60
2022/03/16 16:52:06;;;;;;;1999.90;999.90;;;;;;;12.37;56.89;102405.94;15613957;28;20041;-61
2022/03/16 16:59:39;;;;;;;1999.90;999.90;;;;;;;12.32;58.26;102414.44;15635178;28;20048;-60
2022/03/16 17:07:11;;;;;;;;;;;;;;;12.09;59.92;102416.19;15614696;28;20175;-62
2022/03/16 17:14:46;;;;;;;1999.90;999.90;;;;;;;11.61;62.07;102425.78;15614922;28;19924;-61
2022/03/16 17:22:20;;;;;;;1999.90;999.90;;;;;;;11.43;63.05;102432.97;15647430;28;20103;-60
2022/03/16 17:29:53;;;;;;;1999.90;999.90;;;;;;;10.93;64.80;102421.19;15599472;28;20100;-60
2022/03/16 17:37:27;;;;;;;1999.90;999.90;;;;;;;10.75;65.21;102420.00;15584462;28;20435;-60
2022/03/16 17:52:51;;;;;;;1999.90;999.90;;;;;;;10.52;66.52;102415.13;15591189;28;20379;-61
2022/03/16 18:00:25;;;;;;;1999.90;999.90;;;;;;;10.41;67.23;102422.75;15609436;28;20095;-61
2022/03/16 18:07:59;;;;;;;1999.90;999.90;;;;;;;10.99;64.86;102436.78;15607912;28;20053;-63
2022/03/16 18:15:32;;;;;;;1999.90;999.90;;;;;;;10.35;67.28;102447.09;15608606;28;20049;-61
2022/03/16 18:23:05;;;;;;;1999.90;999.90;;;;;;;10.26;67.58;102443.25;15606582;28;20040;-63
2022/03/16 18:30:38;;;;;;;1999.90;999.90;;;;;;;9.91;68.64;102426.72;15601324;28;20045;-60
2022/03/16 18:38:11;;;;;;;1999.90;999.90;;;;;;;9.52;70.18;102428.28;15603531;28;20056;-63
2022/03/16 18:45:45;;;;;;;1999.90;999.90;;;;;;;9.36;71.10;102435.00;15605199;28;20459;-64
2022/03/16 18:53:18;;;;;;;1999.90;999.90;;;;;;;9.20;71.39;102434.22;15602283;28;20049;-62
2022/03/16 19:00:54;;;;;;;1999.90;999.90;;;;;;;9.21;71.41;102438.66;15588605;28;20061;-60
2022/03/16 19:08:26;;;;;;;1999.90;999.90;;;;;;;9.01;72.16;102440.66;15604638;28;20175;-60
2022/03/16 19:16:04;;;;;;;1999.90;999.90;;;;;;;8.75;73.34;102435.09;15593347;28;20490;-62
2022/03/16 19:23:38;;;;;;;1999.90;999.90;;;;;;;8.98;72.39;102441.22;15590491;28;20049;-60
2022/03/16 19:31:12;;;;;;;1999.90;999.90;;;;;;;8.74;73.47;102432.59;15588973;22;20038;-61
2022/03/16 19:38:45;;;;;;;1999.90;999.90;;;;;;;8.48;74.96;102434.56;15537794;28;20116;-61
2022/03/16 19:46:19;;;;;;;1999.90;999.90;;;;;;;8.32;75.38;102430.88;15534780;28;20508;-61
2022/03/16 19:53:52;;;;;;;1999.90;999.90;;;;;;;8.33;75.52;102443.69;15518936;28;20121;-63
2022/03/16 20:01:27;;;;;;;1999.90;999.90;;;;;;;8.35;75.16;102428.44;15472612;28;20061;-59
2022/03/16 20:09:01;;;;;;;1999.90;999.90;;;;;;;8.27;75.28;102423.38;15529704;28;20050;-62
2022/03/16 20:16:35;;;;;;;1999.90;999.90;;;;;;;8.26;75.78;102418.94;15508968;28;20064;-61
2022/03/16 20:24:07;;;;;;;1999.90;999.90;;;;;;;8.11;76.19;102424.47;15500327;28;20037;-64
2022/03/16 20:31:42;;;;;;;1999.90;999.90;;;;;;;7.93;76.70;102425.00;15515509;28;20398;-61
2022/03/16 20:39:14;;;;;;;1999.90;999.90;;;;;;;7.74;77.60;102428.25;15501970;28;20057;-63
2022/03/16 20:46:47;;;;;;;1999.90;999.90;;;;;;;7.94;76.34;102423.88;15525647;28;20046;-62
2022/03/16 20:54:22;;;;;;;1999.90;999.90;;;;;;;7.81;76.78;102420.50;15517761;28;20125;-62
2022/03/16 21:02:01;;;;;;;1999.90;999.90;;;;;;;7.71;77.47;102436.28;15502858;28;20069;-63
2022/03/16 21:09:35;;;;;;;1999.90;999.90;;;;;;;7.45;78.24;102440.91;15514982;28;20434;-63
2022/03/16 21:17:08;;;;;;;1999.90;999.90;;;;;;;7.38;79.06;102446.69;15485124;28;20189;-62
2022/03/16 21:24:42;;;;;;;1999.90;999.90;;;;;;;7.70;77.62;102454.91;15498727;28;20380;-63
2022/03/16 21:32:15;;;;;;;1999.90;999.90;;;;;;;7.61;78.19;102469.59;15491810;28;20404;-64
2022/03/16 21:39:48;;;;;;;1999.90;999.90;;;;;;;7.58;77.61;102482.09;15471841;28;20621;-64
2022/03/16 21:47:21;;;;;;;1999.90;999.90;;;;;;;7.83;76.63;102478.59;15517670;28;20467;-63
2022/03/16 21:54:53;;;;;;;1999.90;999.90;;;;;;;7.45;77.81;102468.69;15522337;28;20492;-63
2022/03/16 22:02:26;;;;;;;1999.90;999.90;;;;;;;7.35;77.90;102447.25;15464786;28;20046;-64
2022/03/16 22:09:59;;;;;;;1999.90;999.90;;;;;;;7.29;78.51;102425.25;15521577;28;20066;-63
2022/03/16 22:17:32;;;;;;;1999.90;999.90;;;;;;;7.47;78.46;102410.91;15496459;28;20126;-63
2022/03/16 22:25:06;;;;;;;1999.90;999.90;;;;;;;7.45;78.82;102391.75;15500892;28;20524;-63
2022/03/16 22:32:39;;;;;;;1999.90;999.90;;;;;;;7.40;79.01;102396.44;15465909;28;20042;-63
2022/03/16 22:40:14;;;;;;;1999.90;999.90;;;;;;;7.20;79.69;102417.47;15538350;28;20123;-62
2022/03/16 22:47:47;;;;;;;1999.90;999.90;;;;;;;7.29;79.20;102433.59;15500336;28;20180;-62
2022/03/16 22:55:20;;;;;;;1999.90;999.90;;;;;;;7.29;78.97;102411.38;15513921;28;20077;-62
2022/03/16 23:02:56;;;;;;;1999.90;999.90;;;;;;;7.41;78.32;102395.34;15501412;28;20464;-62
2022/03/16 23:10:29;;;;;;;1999.90;999.90;;;;;;;7.41;78.51;102396.19;15496531;28;20038;-63
2022/03/16 23:18:04;;;;;;;1999.90;999.90;;;;;;;7.67;77.40;102405.44;15515350;28;20042;-62
2022/03/16 23:25:36;;;;;;;1999.90;999.90;;;;;;;7.63;77.43;102395.16;15508869;28;20384;-62
2022/03/16 23:33:09;;;;;;;1999.90;999.90;;;;;;;7.11;79.78;102393.25;15457183;28;20210;-63
2022/03/16 23:40:41;;;;;;;1999.90;999.90;;;;;;;6.90;80.92;102375.66;15531398;28;20191;-62
2022/03/16 23:48:15;;;;;;;1999.90;999.90;;;;;;;7.44;78.80;102403.97;15519948;28;20295;-63
2022/03/16 23:55:47;;;;;;;;;;;;;;;7.68;76.34;102392.38;15537351;28;20046;-62
